Pagrindinis puslapis
METAR-TAF:

METAR-TAF

Oro uostai :

Jendouba, Tunisas

platuma: 36-29N, ilguma: 008-48E, Aukštis: 143 m

Dabartinis oras

Ataskaita buvo paskelbta 54 minutes, ne 03:00 UTC
Vėjas 4 kt iš Pietvakarių
Temperatūra 6°C
Drėgmė 87%
Slėgis 1028 hPa
Matomumas: 8000 m
Mažai debesys ne aukštis 2000 ft

METAR: DTTN 220300Z 23004KT 8000 FEW020 06/04 Q1028

Laikas: 04:54 (03:54 UTC)


TAF: trūkstamas

Orai ataskaitas ir orų prognozės (METAR, TAF).

turimą stotys yra geltonos ir raudonos taškus žemėlapyje.

Perkelti pele per norėdami pamatyti stoties vardą.

Tada spustelėkite, norėdami matyti oro stebėjimo ir prognozės.

Norėdami pakeisti žemėlapį: spustelėkite ant žalios mygtukų su juodo kryžiaus žemyn,; žalią mygtuką su brūkšneliu, jei norite nutolinti; arba žalių rodyklių gretimoms žemėlapius.


METAR-TAF: